Time;durP1;ratioP1;P1;durP2;ratioP2;P2;SDS_P1;SDS_P2;PMS_P1;PMS_P2;Temp;Humidity;BMP_temperature;BMP_pressure;BME280_temperature;BME280_humidity;BME280_pressure;Samples;Min_cycle;Max_cycle;Signal;HPM_P1;HPM_P2
2023/03/13 00:03:02;;;;;;;14.17;3.30;;;;;10.30;99770.00;;;;9740141;30;20207;-78
2023/03/13 00:08:04;;;;;;;11.17;3.27;;;;;10.30;99754.00;;;;9743825;30;20202;-77
2023/03/13 00:13:08;;;;;;;9.60;3.53;;;;;10.40;99743.00;;;;9742233;30;20217;-78
2023/03/13 00:18:10;;;;;;;9.20;3.10;;;;;10.40;99737.00;;;;9742084;30;20210;-79
2023/03/13 00:23:12;;;;;;;6.83;2.60;;;;;10.40;99730.00;;;;9755313;30;20289;-78
2023/03/13 00:28:14;;;;;;;6.90;2.27;;;;;10.50;99710.00;;;;9754794;30;20195;-79
2023/03/13 00:33:16;;;;;;;15.10;2.93;;;;;10.50;99685.00;;;;9742727;30;20226;-78
2023/03/13 00:38:18;;;;;;;7.30;3.03;;;;;10.50;99683.00;;;;9757635;30;20217;-78
2023/03/13 00:43:19;;;;;;;7.60;2.53;;;;;10.50;99686.00;;;;9765709;30;20261;-78
2023/03/13 00:48:22;;;;;;;10.77;2.67;;;;;10.50;99692.00;;;;9755563;30;20264;-78
2023/03/13 00:53:24;;;;;;;5.73;2.17;;;;;10.50;99681.00;;;;9725222;30;20226;-78
2023/03/13 00:58:27;;;;;;;4.83;2.20;;;;;10.50;99671.00;;;;9711560;30;20326;-78
2023/03/13 01:03:29;;;;;;;5.83;2.17;;;;;10.50;99656.00;;;;9754794;30;20343;-78
2023/03/13 01:08:31;;;;;;;4.30;1.90;;;;;10.60;99657.00;;;;9754318;30;20199;-78
2023/03/13 01:13:36;;;;;;;7.00;2.97;;;;;10.60;99646.00;;;;9736463;30;20253;-78
2023/03/13 01:18:41;;;;;;;7.77;3.40;;;;;10.60;99649.00;;;;9738373;30;20734;-79
2023/03/13 01:23:44;;;;;;;5.90;2.83;;;;;10.70;99641.00;;;;9753252;30;20202;-79
2023/03/13 01:28:47;;;;;;;6.27;3.80;;;;;10.80;99647.00;;;;9733417;30;20223;-78
2023/03/13 01:33:54;;;;;;;5.87;4.10;;;;;10.90;99633.00;;;;9736562;30;20199;-78
2023/03/13 01:38:58;;;;;;;9.30;4.60;;;;;10.90;99609.00;;;;9749649;30;20218;-79
2023/03/13 01:44:01;;;;;;;10.20;5.53;;;;;11.00;99601.00;;;;9736590;30;20283;-79
2023/03/13 01:49:18;;;;;;;6.60;4.13;;;;;11.00;99581.00;;;;9783932;30;20190;-79
2023/03/13 01:55:01;;;;;;;9.43;4.83;;;;;11.00;99540.00;;;;9745974;30;20218;-78
2023/03/13 02:00:12;;;;;;;7.70;4.97;;;;;11.00;99537.00;;;;9734194;30;20298;-79
2023/03/13 02:05:15;;;;;;;10.53;5.30;;;;;11.00;99527.00;;;;9731861;30;20202;-79
2023/03/13 02:10:21;;;;;;;7.33;5.03;;;;;11.10;99523.00;;;;9715872;30;20202;-79
2023/03/13 02:15:26;;;;;;;11.23;4.70;;;;;11.20;99530.00;;;;9718996;30;20219;-80
2023/03/13 02:20:28;;;;;;;7.30;4.63;;;;;11.30;99512.00;;;;9732730;30;20214;-80
2023/03/13 02:25:43;;;;;;;5.77;5.10;;;;;11.40;99510.00;;;;9729883;30;20241;-80
2023/03/13 02:30:50;;;;;;;6.50;5.23;;;;;11.50;99513.00;;;;9731545;30;20194;-81
2023/03/13 02:35:53;;;;;;;5.97;4.27;;;;;11.70;99487.00;;;;9718143;30;20233;-80
2023/03/13 02:40:58;;;;;;;5.50;4.33;;;;;11.80;99486.00;;;;9712645;30;20227;-79
2023/03/13 02:46:04;;;;;;;6.77;5.03;;;;;11.90;99512.00;;;;9744557;30;20561;-79
2023/03/13 02:51:34;;;;;;;5.63;4.40;;;;;12.00;99497.00;;;;9715146;30;20606;-80
2023/03/13 02:56:38;;;;;;;5.73;4.30;;;;;12.10;99507.00;;;;9727906;30;20679;-81
2023/03/13 03:01:42;;;;;;;7.13;3.97;;;;;12.20;99499.00;;;;9717366;30;20214;-81
2023/03/13 03:06:44;;;;;;;4.53;3.60;;;;;12.20;99501.00;;;;9742573;30;20214;-80
2023/03/13 03:11:47;;;;;;;5.10;3.43;;;;;12.30;99467.00;;;;9717078;30;20610;-80
2023/03/13 03:16:50;;;;;;;10.50;3.60;;;;;12.30;99475.00;;;;9694405;30;20199;-79
2023/03/13 03:21:52;;;;;;;7.87;3.67;;;;;12.40;99478.00;;;;9708852;30;20207;-79
2023/03/13 03:26:55;;;;;;;5.07;2.87;;;;;12.40;99468.00;;;;9708498;30;20211;-80
2023/03/13 03:32:02;;;;;;;4.17;2.67;;;;;12.50;99474.00;;;;9694102;30;20205;-81
2023/03/13 03:37:05;;;;;;;5.03;3.53;;;;;12.50;99471.00;;;;9742352;30;20222;-80
2023/03/13 03:42:08;;;;;;;4.87;2.90;;;;;12.60;99450.00;;;;9716820;30;20213;-79
2023/03/13 03:47:12;;;;;;;6.60;3.47;;;;;12.60;99460.00;;;;9729749;30;20226;-80
2023/03/13 03:52:19;;;;;;;7.13;3.20;;;;;12.60;99463.00;;;;9716429;30;20233;-79
2023/03/13 03:57:22;;;;;;;7.13;3.17;;;;;12.60;99471.00;;;;9715770;30;20313;-79
2023/03/13 04:02:24;;;;;;;3.80;2.57;;;;;12.60;99462.00;;;;9715492;30;20210;-79
2023/03/13 04:07:27;;;;;;;6.43;3.00;;;;;12.70;99455.00;;;;9729927;30;20257;-80
2023/03/13 04:12:29;;;;;;;5.27;2.60;;;;;12.70;99436.00;;;;9729408;30;20202;-81
2023/03/13 04:17:32;;;;;;;4.43;3.30;;;;;12.70;99409.00;;;;9711958;30;20320;-79
2023/03/13 04:22:34;;;;;;;5.40;2.90;;;;;12.70;99409.00;;;;9743280;30;20210;-80
2023/03/13 04:27:37;;;;;;;4.60;2.40;;;;;12.70;99418.00;;;;9728747;30;20566;-79
2023/03/13 04:32:40;;;;;;;6.27;2.60;;;;;12.70;99468.00;;;;9734139;30;20241;-79
2023/03/13 04:38:00;;;;;;;5.87;2.53;;;;;12.70;99464.00;;;;9750139;30;20264;-80
2023/03/13 04:43:24;;;;;;;6.10;2.60;;;;;12.70;99451.00;;;;9754769;30;20245;-81
2023/03/13 04:48:41;;;;;;;5.43;2.63;;;;;12.70;99440.00;;;;9708850;30;20610;-80
2023/03/13 04:53:57;;;;;;;7.63;3.30;;;;;12.80;99460.00;;;;9722980;30;20206;-80
2023/03/13 04:59:14;;;;;;;7.83;3.07;;;;;12.80;99443.00;;;;9722746;30;20222;-80
2023/03/13 05:04:34;;;;;;;10.13;3.30;;;;;12.80;99436.00;;;;9734735;30;20199;-79
2023/03/13 05:09:57;;;;;;;9.00;3.00;;;;;12.80;99417.00;;;;9734322;30;20196;-80
2023/03/13 05:15:38;;;;;;;4.77;2.50;;;;;12.80;99393.00;;;;9737888;30;20214;-79
2023/03/13 05:20:55;;;;;;;11.53;2.83;;;;;12.80;99385.00;;;;9748347;30;20300;-81
2023/03/13 05:26:16;;;;;;;7.97;2.70;;;;;12.80;99399.00;;;;9732990;30;20663;-80
2023/03/13 05:31:31;;;;;;;5.23;2.43;;;;;12.90;99398.00;;;;9719830;30;20218;-80
2023/03/13 05:36:46;;;;;;;7.77;2.63;;;;;12.80;99404.00;;;;9733196;30;20208;-80
2023/03/13 05:42:06;;;;;;;5.53;2.30;;;;;12.80;99379.00;;;;9748135;30;20202;-81
2023/03/13 05:47:11;;;;;;;15.70;3.67;;;;;12.80;99402.00;;;;9782616;30;20985;-80
2023/03/13 05:52:20;;;;;;;6.37;2.90;;;;;12.80;99376.00;;;;9755006;30;20202;-79
2023/03/13 05:57:32;;;;;;;17.23;4.20;;;;;12.80;99385.00;;;;9690836;30;20215;-80
2023/03/13 06:02:53;;;;;;;10.70;3.10;;;;;12.90;99366.00;;;;9712206;30;20211;-80
2023/03/13 06:08:03;;;;;;;7.70;2.87;;;;;12.90;99367.00;;;;9730853;30;20638;-79
2023/03/13 06:13:05;;;;;;;8.10;2.90;;;;;12.90;99369.00;;;;9717613;30;20272;-79
2023/03/13 06:18:23;;;;;;;7.93;2.80;;;;;13.00;99355.00;;;;9749919;30;20210;-80
2023/03/13 06:23:25;;;;;;;6.73;2.30;;;;;13.00;99358.00;;;;9722935;30;20229;-80
2023/03/13 06:28:28;;;;;;;6.10;2.30;;;;;13.00;99362.00;;;;9745761;30;20702;-79
2023/03/13 06:33:30;;;;;;;15.43;3.20;;;;;13.00;99365.00;;;;9745563;30;20206;-79
2023/03/13 06:38:32;;;;;;;6.77;2.20;;;;;13.10;99358.00;;;;9746152;30;20292;-79
2023/03/13 06:43:34;;;;;;;10.57;3.03;;;;;13.20;99362.00;;;;9717440;30;20997;-80
2023/03/13 06:48:36;;;;;;;9.60;3.30;;;;;13.20;99366.00;;;;9717609;30;20198;-79
2023/03/13 06:53:38;;;;;;;7.83;2.70;;;;;13.20;99363.00;;;;9682070;30;20211;-80
2023/03/13 06:58:40;;;;;;;8.17;2.87;;;;;13.30;99349.00;;;;9708779;30;20226;-80
2023/03/13 07:03:43;;;;;;;8.80;3.20;;;;;13.40;99357.00;;;;9723652;30;20726;-80
2023/03/13 07:08:45;;;;;;;10.27;3.10;;;;;13.50;99360.00;;;;9730337;30;20249;-80
2023/03/13 07:13:47;;;;;;;10.88;3.50;;;;;13.60;99344.00;;;;9759755;30;20675;-79
2023/03/13 07:18:49;;;;;;;11.30;3.60;;;;;13.60;99364.00;;;;9715899;30;20277;-79
2023/03/13 07:23:52;;;;;;;4.53;2.47;;;;;13.60;99342.00;;;;9730508;30;20230;-80
2023/03/13 07:28:55;;;;;;;6.45;2.72;;;;;13.50;99359.00;;;;9744249;30;20209;-81
2023/03/13 07:33:58;;;;;;;13.13;3.38;;;;;13.50;99354.00;;;;9731888;30;20282;-79
2023/03/13 07:39:00;;;;;;;8.70;2.97;;;;;13.50;99346.00;;;;9695060;30;20254;-79
2023/03/13 07:44:02;;;;;;;7.83;2.40;;;;;13.90;99366.00;;;;9727867;30;20307;-79
2023/03/13 07:49:04;;;;;;;4.97;2.57;;;;;14.20;99347.00;;;;9727139;30;20198;-80
2023/03/13 07:54:07;;;;;;;7.65;3.17;;;;;14.40;99358.00;;;;9744432;30;20194;-80
2023/03/13 07:59:09;;;;;;;9.23;3.25;;;;;14.70;99343.00;;;;9715526;30;20282;-79
2023/03/13 08:04:13;;;;;;;9.40;3.00;;;;;14.50;99348.00;;;;9715694;30;20206;-80
2023/03/13 08:09:15;;;;;;;6.45;2.80;;;;;14.60;99365.00;;;;9701426;30;20199;-79
2023/03/13 08:14:17;;;;;;;6.05;2.85;;;;;14.70;99339.00;;;;9732711;30;20779;-80
2023/03/13 08:19:19;;;;;;;8.25;2.78;;;;;14.70;99315.00;;;;9750404;30;20272;-81
2023/03/13 08:24:21;;;;;;;8.55;2.83;;;;;14.90;99326.00;;;;9750691;30;20233;-80
2023/03/13 08:29:23;;;;;;;4.15;2.00;;;;;15.00;99333.00;;;;9750668;30;20191;-80
2023/03/13 08:34:25;;;;;;;4.55;2.50;;;;;15.20;99334.00;;;;9751093;30;20617;-79
2023/03/13 08:39:27;;;;;;;8.82;2.70;;;;;15.40;99318.00;;;;9723077;30;20206;-80
2023/03/13 08:44:29;;;;;;;5.22;2.45;;;;;15.80;99325.00;;;;9723074;30;20246;-79
2023/03/13 08:49:31;;;;;;;2.60;1.75;;;;;16.30;99281.00;;;;9751186;30;20253;-80
2023/03/13 08:54:33;;;;;;;3.97;2.13;;;;;17.10;99300.00;;;;9736471;30;20348;-80
2023/03/13 08:59:35;;;;;;;7.32;2.28;;;;;17.40;99289.00;;;;9737757;30;20224;-79
2023/03/13 09:04:37;;;;;;;8.10;2.25;;;;;16.70;99280.00;;;;9707326;30;20202;-80
2023/03/13 09:09:39;;;;;;;3.60;1.90;;;;;16.70;99290.00;;;;9721132;30;20222;-80
2023/03/13 09:14:41;;;;;;;2.33;1.88;;;;;16.70;99293.00;;;;9736128;30;20221;-80
2023/03/13 09:19:43;;;;;;;4.28;1.88;;;;;16.80;99307.00;;;;9718846;30;20215;-81
2023/03/13 09:25:00;;;;;;;5.95;2.03;;;;;17.10;99284.00;;;;9748461;30;20210;-79
2023/03/13 09:30:03;;;;;;;3.25;1.83;;;;;17.70;99265.00;;;;9733923;30;20642;-80
2023/03/13 09:35:05;;;;;;;4.18;1.77;;;;;17.60;99264.00;;;;9720418;30;20191;-80
2023/03/13 09:40:13;;;;;;;3.75;1.67;;;;;17.60;99221.00;;;;9730303;30;20218;-81
2023/03/13 09:45:38;;;;;;;3.85;1.60;;;;;17.70;99248.00;;;;9728301;30;20726;-80
2023/03/13 09:50:53;;;;;;;3.92;1.42;;;;;17.40;99254.00;;;;9698207;30;20211;-81
2023/03/13 09:55:55;;;;;;;4.63;1.60;;;;;18.80;99245.00;;;;9714190;30;20223;-80
2023/03/13 10:01:01;;;;;;;4.13;1.50;;;;;19.40;99231.00;;;;9692414;30;20363;-80
2023/03/13 10:06:10;;;;;;;2.30;1.35;;;;;19.30;99237.00;;;;9723873;30;20214;-81
2023/03/13 10:11:31;;;;;;;2.13;1.02;;;;;19.20;99228.00;;;;9699240;30;20755;-78
2023/03/13 10:17:08;;;;;;;2.35;1.30;;;;;18.90;99238.00;;;;9738216;30;20206;-79
2023/03/13 10:22:31;;;;;;;4.00;1.40;;;;;18.70;99259.00;;;;9748007;30;20229;-80
2023/03/13 10:27:48;;;;;;;3.05;1.35;;;;;20.30;99193.00;;;;9714692;30;20230;-78
2023/03/13 10:33:12;;;;;;;2.40;1.30;;;;;20.50;99199.00;;;;9746859;30;20187;-78
2023/03/13 10:38:17;;;;;;;3.60;1.60;;;;;20.70;99195.00;;;;9704707;30;20246;-78
2023/03/13 10:43:20;;;;;;;3.72;2.88;;;;;20.60;99184.00;;;;9742213;30;20242;-78
2023/03/13 10:48:28;;;;;;;2.60;1.80;;;;;20.50;99181.00;;;;9702521;30;20198;-77
2023/03/13 10:53:30;;;;;;;4.45;1.60;;;;;20.20;99168.00;;;;9705730;30;20272;-79
2023/03/13 10:58:36;;;;;;;2.78;1.38;;;;;20.50;99159.00;;;;9728635;30;20644;-81
2023/03/13 11:03:38;;;;;;;2.70;1.25;;;;;20.60;99162.00;;;;9742053;30;20713;-78
2023/03/13 11:08:40;;;;;;;3.72;1.38;;;;;20.70;99153.00;;;;9699781;30;20202;-78
2023/03/13 11:13:44;;;;;;;2.42;1.27;;;;;21.10;99148.00;;;;9695719;30;20233;-78
2023/03/13 11:18:56;;;;;;;3.53;1.10;;;;;21.10;99150.00;;;;9705586;30;20309;-77
2023/03/13 11:24:06;;;;;;;2.58;1.08;;;;;21.40;99149.00;;;;9737810;30;20194;-78
2023/03/13 11:29:20;;;;;;;1.90;0.93;;;;;21.50;99141.00;;;;9733868;30;20646;-78
2023/03/13 11:34:46;;;;;;;3.53;1.63;;;;;20.50;99159.00;;;;9717169;30;20737;-77
2023/03/13 11:40:21;;;;;;;4.07;1.20;;;;;19.00;99141.00;;;;9714141;30;20268;-78
2023/03/13 11:45:54;;;;;;;4.75;1.25;;;;;20.00;99115.00;;;;9744056;30;20230;-78
2023/03/13 11:51:36;;;;;;;2.60;1.00;;;;;20.40;99116.00;;;;9753561;30;20236;-78
2023/03/13 11:56:44;;;;;;;1.65;0.80;;;;;18.80;99106.00;;;;9728182;30;20237;-80
2023/03/13 12:02:12;;;;;;;5.32;1.25;;;;;18.70;99081.00;;;;9703874;30;20229;-78
2023/03/13 12:07:35;;;;;;;2.67;1.25;;;;;20.50;99075.00;;;;9721041;30;20326;-78
2023/03/13 12:13:21;;;;;;;5.68;1.65;;;;;21.40;99076.00;;;;9735325;30;20214;-77
2023/03/13 12:18:35;;;;;;;2.80;1.05;;;;;22.20;99075.00;;;;9736936;30;20261;-78
2023/03/13 12:23:59;;;;;;;3.70;1.30;;;;;21.30;99069.00;;;;9742672;30;20845;-77
2023/03/13 12:29:07;;;;;;;4.43;1.25;;;;;20.00;99072.00;;;;9721997;30;20434;-78
2023/03/13 12:34:43;;;;;;;2.65;1.40;;;;;21.50;99059.00;;;;9731075;30;20210;-78
2023/03/13 12:40:06;;;;;;;3.38;1.00;;;;;21.50;99062.00;;;;9737771;30;20222;-78
2023/03/13 12:45:17;;;;;;;3.65;1.55;;;;;21.50;99049.00;;;;9731640;30;20246;-78
2023/03/13 12:50:49;;;;;;;3.13;1.30;;;;;21.90;99037.00;;;;9749392;30;20203;-78
2023/03/13 12:56:16;;;;;;;3.75;1.88;;;;;20.80;99049.00;;;;9740616;30;20197;-77
2023/03/13 13:01:29;;;;;;;2.42;1.17;;;;;20.60;99041.00;;;;9748189;30;20211;-78
2023/03/13 13:06:51;;;;;;;1.30;0.95;;;;;20.00;99033.00;;;;9718437;30;20312;-77
2023/03/13 13:11:55;;;;;;;3.22;1.20;;;;;19.60;99009.00;;;;9722747;30;20209;-77
2023/03/13 13:17:09;;;;;;;4.13;1.55;;;;;19.10;98993.00;;;;9745587;30;20238;-78
2023/03/13 13:22:36;;;;;;;1.58;0.82;;;;;19.80;98996.00;;;;9739660;30;20214;-77
2023/03/13 13:27:38;;;;;;;5.57;1.00;;;;;20.00;98996.00;;;;9762080;30;20206;-77
2023/03/13 13:32:48;;;;;;;6.35;1.92;;;;;19.60;98981.00;;;;9736832;30;20214;-80
2023/03/13 13:37:51;;;;;;;4.15;1.00;;;;;20.20;98961.00;;;;9738282;30;20210;-77
2023/03/13 13:42:57;;;;;;;6.03;2.88;;;;;20.10;98964.00;;;;9741988;30;20284;-78
2023/03/13 13:48:18;;;;;;;2.45;1.05;;;;;20.30;98949.00;;;;9717801;30;20214;-77
2023/03/13 13:53:33;;;;;;;4.90;1.23;;;;;21.90;98892.00;;;;9739330;30;20663;-78
2023/03/13 13:58:42;;;;;;;4.10;1.00;;;;;25.20;98899.00;;;;9691634;30;20206;-78
2023/03/13 14:03:44;;;;;;;4.00;1.60;;;;;26.20;98880.00;;;;9754510;30;20355;-78
2023/03/13 14:08:49;;;;;;;4.07;1.40;;;;;26.40;98875.00;;;;9724472;30;20200;-78
2023/03/13 14:14:20;;;;;;;4.75;1.38;;;;;24.90;98886.00;;;;9730052;30;20206;-78
2023/03/13 14:19:36;;;;;;;4.82;1.05;;;;;24.00;98862.00;;;;9740180;30;20210;-79
2023/03/13 14:24:39;;;;;;;4.53;1.42;;;;;23.10;98914.00;;;;9753424;30;20221;-77
2023/03/13 14:29:41;;;;;;;5.13;1.02;;;;;22.00;98890.00;;;;9745109;30;20206;-80
2023/03/13 14:34:43;;;;;;;5.28;2.00;;;;;21.90;98862.00;;;;9756301;30;20245;-80
2023/03/13 14:39:47;;;;;;;2.85;1.10;;;;;25.50;98797.00;;;;9720450;30;20253;-79
2023/03/13 14:44:52;;;;;;;5.18;1.40;;;;;25.60;98788.00;;;;9723411;30;20234;-77
2023/03/13 14:50:00;;;;;;;5.43;1.48;;;;;26.50;98800.00;;;;9715578;30;20544;-78
2023/03/13 14:55:06;;;;;;;2.80;0.98;;;;;23.60;98780.00;;;;9759649;30;20776;-78
2023/03/13 15:00:38;;;;;;;5.15;1.17;;;;;22.70;98852.00;;;;9731017;30;20241;-77
2023/03/13 15:05:40;;;;;;;4.18;1.45;;;;;22.50;98823.00;;;;9718966;30;20679;-77
2023/03/13 15:10:43;;;;;;;6.00;1.38;;;;;21.10;98822.00;;;;9714048;30;20671;-77
2023/03/13 15:15:49;;;;;;;4.15;1.80;;;;;24.20;98736.00;;;;9717999;30;20943;-81
2023/03/13 15:20:53;;;;;;;6.72;1.70;;;;;22.70;98775.00;;;;9709788;30;20314;-78
2023/03/13 15:25:55;;;;;;;5.32;1.60;;;;;23.00;98772.00;;;;9716433;30;20195;-80
2023/03/13 15:30:59;;;;;;;6.32;1.33;;;;;21.60;98774.00;;;;9730641;30;20306;-80
2023/03/13 15:36:01;;;;;;;5.47;1.10;;;;;23.70;98739.00;;;;9729567;30;20210;-80
2023/03/13 15:41:03;;;;;;;5.68;1.45;;;;;24.10;98775.00;;;;9759047;30;20264;-78
2023/03/13 15:46:11;;;;;;;4.35;1.33;;;;;22.90;98751.00;;;;9717384;30;20699;-78
2023/03/13 15:51:15;;;;;;;6.43;1.88;;;;;21.00;98766.00;;;;9761006;30;20210;-80
2023/03/13 15:56:21;;;;;;;6.10;1.73;;;;;19.40;98740.00;;;;9729340;30;20202;-80
2023/03/13 16:01:23;;;;;;;5.78;1.73;;;;;18.50;98734.00;;;;9718995;30;20254;-80
2023/03/13 16:06:30;;;;;;;6.45;1.98;;;;;18.10;98739.00;;;;9740268;30;20207;-81
2023/03/13 16:11:33;;;;;;;5.97;1.45;;;;;17.30;98745.00;;;;9716891;30;20211;-80
2023/03/13 16:16:35;;;;;;;5.25;1.85;;;;;17.10;98734.00;;;;9711441;30;20209;-79
2023/03/13 16:21:41;;;;;;;7.07;2.13;;;;;17.00;98724.00;;;;9706340;30;20243;-80
2023/03/13 16:26:44;;;;;;;8.95;2.00;;;;;17.00;98707.00;;;;9703098;30;20310;-80
2023/03/13 16:31:46;;;;;;;6.75;1.83;;;;;16.80;98716.00;;;;9743275;30;20210;-80
2023/03/13 16:36:48;;;;;;;6.30;1.88;;;;;16.70;98711.00;;;;9737584;30;20210;-80
2023/03/13 16:41:50;;;;;;;5.55;1.90;;;;;16.50;98704.00;;;;9726956;30;20218;-79
2023/03/13 16:46:52;;;;;;;5.10;1.88;;;;;16.40;98687.00;;;;9715508;30;20231;-79
2023/03/13 16:52:13;;;;;;;9.73;2.10;;;;;16.40;98684.00;;;;9765749;30;20220;-79
2023/03/13 16:57:18;;;;;;;9.63;2.00;;;;;16.20;98684.00;;;;9772613;30;20277;-80
2023/03/13 17:02:20;;;;;;;9.18;2.42;;;;;16.10;98687.00;;;;9751271;30;20246;-80
2023/03/13 17:07:28;;;;;;;8.65;2.15;;;;;16.00;98669.00;;;;9711495;30;20210;-80
2023/03/13 17:12:30;;;;;;;6.72;1.88;;;;;15.80;98676.00;;;;9730204;30;20205;-79
2023/03/13 17:17:33;;;;;;;6.05;2.35;;;;;15.80;98675.00;;;;9717501;30;20215;-80
2023/03/13 17:22:35;;;;;;;9.95;2.28;;;;;15.70;98669.00;;;;9694793;30;20248;-80
2023/03/13 17:27:39;;;;;;;6.72;1.77;;;;;15.60;98672.00;;;;9709196;30;20588;-80
2023/03/13 17:32:41;;;;;;;5.32;2.30;;;;;15.50;98660.00;;;;9715137;30;20218;-79
2023/03/13 17:37:43;;;;;;;9.25;2.17;;;;;15.30;98667.00;;;;9732444;30;20323;-78
2023/03/13 17:42:46;;;;;;;8.18;2.15;;;;;15.20;98658.00;;;;9694979;30;20285;-77
2023/03/13 17:47:49;;;;;;;8.40;2.33;;;;;15.10;98664.00;;;;9730167;30;20260;-77
2023/03/13 17:52:51;;;;;;;8.82;2.17;;;;;15.00;98659.00;;;;9733631;30;20205;-77
2023/03/13 17:57:53;;;;;;;6.13;2.17;;;;;14.80;98648.00;;;;9747256;30;20293;-77
2023/03/13 18:02:56;;;;;;;7.70;2.30;;;;;14.80;98656.00;;;;9747129;30;20210;-77
2023/03/13 18:07:58;;;;;;;9.20;2.55;;;;;14.70;98645.00;;;;9713585;30;20202;-77
2023/03/13 18:13:00;;;;;;;7.95;2.10;;;;;14.60;98650.00;;;;9746444;30;20293;-77
2023/03/13 18:18:03;;;;;;;6.65;1.98;;;;;14.40;98656.00;;;;9746276;30;20199;-77
2023/03/13 18:23:04;;;;;;;6.63;2.35;;;;;14.20;98640.00;;;;9695066;30;20726;-77
2023/03/13 18:28:10;;;;;;;6.15;2.33;;;;;14.10;98635.00;;;;9688971;30;20211;-77
2023/03/13 18:33:12;;;;;;;8.75;2.45;;;;;13.90;98633.00;;;;9661509;30;20232;-77
2023/03/13 18:38:14;;;;;;;7.73;2.47;;;;;13.80;98638.00;;;;9659311;30;20215;-77
2023/03/13 18:43:16;;;;;;;8.20;2.65;;;;;13.80;98639.00;;;;9685468;30;20712;-77
2023/03/13 18:48:18;;;;;;;8.98;2.05;;;;;13.80;98625.00;;;;9737437;30;20231;-77
2023/03/13 18:53:20;;;;;;;8.75;1.95;;;;;13.80;98626.00;;;;9709733;30;20759;-77
2023/03/13 18:58:22;;;;;;;7.67;2.00;;;;;13.60;98633.00;;;;9696006;30;20727;-77
2023/03/13 19:03:24;;;;;;;4.83;2.43;;;;;13.50;98632.00;;;;9709229;30;20238;-76
2023/03/13 19:08:26;;;;;;;5.20;2.10;;;;;13.50;98625.00;;;;9680967;30;20665;-78
2023/03/13 19:13:33;;;;;;;6.53;1.80;;;;;13.40;98610.00;;;;9693765;30;20221;-77
2023/03/13 19:18:35;;;;;;;5.93;2.53;;;;;13.40;98613.00;;;;9708990;30;20203;-77
2023/03/13 19:23:37;;;;;;;6.33;2.70;;;;;13.20;98610.00;;;;9722546;30;20211;-77
2023/03/13 19:28:39;;;;;;;4.53;2.10;;;;;13.10;98600.00;;;;9694173;30;20234;-78
2023/03/13 19:33:41;;;;;;;5.57;2.40;;;;;13.00;98606.00;;;;9694337;30;20433;-77
2023/03/13 19:38:44;;;;;;;7.63;2.23;;;;;13.00;98603.00;;;;9707366;30;20203;-77
2023/03/13 19:43:46;;;;;;;7.80;2.57;;;;;12.90;98600.00;;;;9718966;30;20234;-77
2023/03/13 19:48:54;;;;;;;9.33;2.00;;;;;12.80;98607.00;;;;9693688;30;20215;-77
2023/03/13 19:53:56;;;;;;;9.40;2.10;;;;;12.70;98603.00;;;;9707675;30;20191;-77
2023/03/13 19:59:09;;;;;;;7.47;1.97;;;;;12.70;98591.00;;;;9721719;30;20746;-77
2023/03/13 20:04:11;;;;;;;8.63;2.00;;;;;12.70;98618.00;;;;9713440;30;20763;-77
2023/03/13 20:09:15;;;;;;;10.33;2.20;;;;;12.70;98610.00;;;;9699804;30;20684;-78
2023/03/13 20:14:17;;;;;;;5.87;2.30;;;;;12.60;98622.00;;;;9739744;30;20205;-77
2023/03/13 20:19:21;;;;;;;7.77;2.00;;;;;12.50;98627.00;;;;9706043;30;20298;-77
2023/03/13 20:24:23;;;;;;;3.17;1.50;;;;;12.40;98646.00;;;;9734677;30;20293;-77
2023/03/13 20:29:25;;;;;;;5.87;2.17;;;;;12.40;98646.00;;;;9684308;30;20211;-77
2023/03/13 20:34:27;;;;;;;6.63;1.60;;;;;12.40;98645.00;;;;9713250;30;20269;-77
2023/03/13 20:39:30;;;;;;;10.97;2.60;;;;;12.30;98632.00;;;;9748417;30;20206;-77
2023/03/13 20:44:32;;;;;;;6.77;2.00;;;;;12.30;98619.00;;;;9743938;30;20246;-77
2023/03/13 20:49:34;;;;;;;8.53;2.47;;;;;12.30;98618.00;;;;9748188;30;20650;-77
2023/03/13 20:54:37;;;;;;;8.00;2.43;;;;;12.30;98605.00;;;;9734931;30;20302;-77
2023/03/13 20:59:40;;;;;;;4.20;2.33;;;;;12.30;98588.00;;;;9688033;30;20283;-77
2023/03/13 21:04:42;;;;;;;7.70;2.23;;;;;12.30;98555.00;;;;9712712;30;20195;-77
2023/03/13 21:09:43;;;;;;;6.33;1.93;;;;;12.30;98562.00;;;;9709539;30;20298;-77
2023/03/13 21:14:47;;;;;;;6.90;1.90;;;;;12.20;98577.00;;;;9747453;30;20281;-77
2023/03/13 21:19:49;;;;;;;6.07;2.00;;;;;12.20;98577.00;;;;9732935;30;20634;-77
2023/03/13 21:24:51;;;;;;;5.20;1.60;;;;;12.30;98573.00;;;;9747151;30;20648;-77
2023/03/13 21:29:53;;;;;;;10.43;2.90;;;;;12.40;98586.00;;;;9717628;30;20202;-77
2023/03/13 21:34:55;;;;;;;9.17;2.10;;;;;12.40;98578.00;;;;9731993;30;20207;-77
2023/03/13 21:39:57;;;;;;;8.33;2.13;;;;;12.40;98581.00;;;;9732227;30;20222;-77
2023/03/13 21:44:59;;;;;;;7.27;2.10;;;;;12.40;98581.00;;;;9731765;30;20910;-77
2023/03/13 21:50:02;;;;;;;8.50;2.50;;;;;12.40;98583.00;;;;9746765;30;20246;-77
2023/03/13 21:55:06;;;;;;;6.37;1.97;;;;;12.40;98576.00;;;;9745552;30;20245;-77
2023/03/13 22:00:09;;;;;;;5.27;1.80;;;;;12.40;98578.00;;;;9697530;30;20573;-77
2023/03/13 22:05:11;;;;;;;7.27;2.03;;;;;12.40;98558.00;;;;9699444;30;20562;-77
2023/03/13 22:10:13;;;;;;;4.60;1.73;;;;;12.40;98561.00;;;;9687324;30;20243;-77
2023/03/13 22:15:15;;;;;;;9.03;2.43;;;;;12.40;98583.00;;;;9708894;30;20269;-77
2023/03/13 22:20:17;;;;;;;5.67;1.73;;;;;11.60;98586.00;;;;9672875;30;20269;-76
2023/03/13 22:25:19;;;;;;;3.80;1.13;;;;;11.20;98588.00;;;;9716077;30;20546;-77
2023/03/13 22:30:21;;;;;;;5.00;1.53;;;;;11.10;98578.00;;;;9723102;30;20206;-77
2023/03/13 22:35:23;;;;;;;5.80;1.77;;;;;11.20;98586.00;;;;9741420;30;20285;-77
2023/03/13 22:40:25;;;;;;;3.83;1.30;;;;;11.20;98590.00;;;;9705103;30;20783;-77
2023/03/13 22:45:29;;;;;;;3.93;1.53;;;;;11.20;98589.00;;;;9732390;30;20463;-77
2023/03/13 22:50:32;;;;;;;2.70;1.10;;;;;11.10;98601.00;;;;9727266;30;20579;-77
2023/03/13 22:55:34;;;;;;;4.63;1.10;;;;;11.10;98588.00;;;;9742821;30;20704;-77
2023/03/13 23:00:36;;;;;;;7.07;1.50;;;;;11.20;98584.00;;;;9732523;30;20239;-77
2023/03/13 23:05:41;;;;;;;7.47;1.40;;;;;11.10;98585.00;;;;9721130;30;20226;-77
2023/03/13 23:10:45;;;;;;;5.23;1.20;;;;;11.00;98576.00;;;;9705459;30;20203;-77
2023/03/13 23:15:47;;;;;;;3.50;0.90;;;;;10.90;98577.00;;;;9727955;30;20220;-77
2023/03/13 23:20:57;;;;;;;5.10;1.30;;;;;10.80;98573.00;;;;9714577;30;20738;-77
2023/03/13 23:26:01;;;;;;;6.40;1.17;;;;;10.70;98573.00;;;;9743088;30;20237;-77
2023/03/13 23:31:15;;;;;;;5.13;1.47;;;;;10.70;98564.00;;;;9713566;30;20675;-77
2023/03/13 23:36:18;;;;;;;5.97;1.27;;;;;10.70;98563.00;;;;9726909;30;20586;-77
2023/03/13 23:41:20;;;;;;;3.30;1.07;;;;;10.70;98555.00;;;;9756321;30;20211;-77
2023/03/13 23:46:25;;;;;;;2.90;0.90;;;;;10.70;98570.00;;;;9740985;30;20238;-77
2023/03/13 23:51:27;;;;;;;4.17;1.20;;;;;10.70;98573.00;;;;9726955;30;20198;-77
2023/03/13 23:56:30;;;;;;;5.57;1.43;;;;;10.80;98575.00;;;;9699494;30;20268;-77
